Time;durP1;ratioP1;P1;durP2;ratioP2;P2;SDS_P1;SDS_P2;PMS_P1;PMS_P2;Temp;Humidity;BMP_temperature;BMP_pressure;BME280_temperature;BME280_humidity;BME280_pressure;Samples;Min_cycle;Max_cycle;Signal;HPM_P1;HPM_P2
2023/10/01 00:00:34;;;;;;;13.40;10.30;;;;;;;16.34;100.00;100188.30;104632;1264;73134;-55
2023/10/01 00:03:02;;;;;;;17.90;11.60;;;;;;;16.34;100.00;100190.08;104681;1257;65673;-55
2023/10/01 00:05:29;;;;;;;15.40;10.30;;;;;;;16.35;100.00;100190.97;104851;1263;71426;-55
2023/10/01 00:07:57;;;;;;;15.20;9.90;;;;;;;16.33;100.00;100192.15;104584;1262;60678;-56
2023/10/01 00:10:25;;;;;;;16.70;10.60;;;;;;;16.32;100.00;100193.50;104441;1263;59749;-56
2023/10/01 00:12:57;;;;;;;16.10;10.90;;;;;;;16.31;100.00;100194.88;105315;1265;74964;-56
2023/10/01 00:15:25;;;;;;;13.90;10.40;;;;;;;16.27;100.00;100191.82;104652;1263;66315;-56
2023/10/01 00:17:53;;;;;;;14.80;10.90;;;;;;;16.24;100.00;100191.48;104681;1263;72802;-54
2023/10/01 00:20:25;;;;;;;15.70;11.60;;;;;;;16.21;100.00;100185.31;104686;1258;61196;-56
2023/10/01 00:22:59;;;;;;;11.80;10.50;;;;;;;16.18;100.00;100190.05;108747;1256;58744;-55
2023/10/01 00:25:30;;;;;;;15.20;11.40;;;;;;;16.16;100.00;100185.27;108764;1257;73114;-54
2023/10/01 00:27:58;;;;;;;16.60;10.70;;;;;;;16.14;100.00;100190.69;108779;1257;67051;-54
2023/10/01 00:30:31;;;;;;;18.90;11.50;;;;;;;16.12;100.00;100194.80;108791;1257;72664;-54
2023/10/01 00:32:59;;;;;;;17.10;11.60;;;;;;;16.10;100.00;100193.98;106411;1263;59554;-52
2023/10/01 00:35:26;;;;;;;15.80;11.50;;;;;;;16.09;100.00;100191.17;108836;1257;58826;-54
2023/10/01 00:37:54;;;;;;;16.00;10.30;;;;;;;16.08;100.00;100191.56;106914;1262;72271;-53
2023/10/01 00:40:22;;;;;;;14.70;11.80;;;;;;;16.08;100.00;100189.76;104666;1257;66113;-54
2023/10/01 00:42:49;;;;;;;13.30;10.90;;;;;;;16.09;100.00;100187.22;108693;1257;71481;-56
2023/10/01 00:45:17;;;;;;;15.40;11.60;;;;;;;16.09;100.00;100189.02;108748;1262;60028;-56
2023/10/01 00:47:45;;;;;;;18.40;12.20;;;;;;;16.08;100.00;100184.03;108699;1257;58804;-56
2023/10/01 00:50:21;;;;;;;15.80;11.40;;;;;;;16.06;100.00;100181.77;107335;1264;73548;-54
2023/10/01 00:52:50;;;;;;;21.10;12.10;;;;;;;16.06;100.00;100189.05;108789;1257;65657;-56
2023/10/01 00:55:18;;;;;;;17.20;12.00;;;;;;;16.04;100.00;100187.52;108671;1262;71733;-56
2023/10/01 00:57:45;;;;;;;17.20;11.60;;;;;;;16.04;100.00;100187.89;106576;1263;59617;-55
2023/10/01 01:00:16;;;;;;;16.00;13.10;;;;;;;16.03;100.00;100189.41;104577;1266;59734;-56
2023/10/01 01:03:27;;;;;;;14.00;12.30;;;;;;;16.00;100.00;100183.11;105459;1256;72311;-55
2023/10/01 01:05:37;;;;;;;16.60;12.00;;;;;;;15.95;100.00;100184.66;104429;1257;65986;-53
2023/10/01 01:08:20;;;;;;;19.60;10.90;;;;;;;15.90;100.00;100179.39;104637;1257;72694;-55
2023/10/01 01:10:50;;;;;;;16.30;12.40;;;;;;;15.83;100.00;100172.00;105873;1257;59757;-54
2023/10/01 01:13:17;;;;;;;23.30;12.10;;;;;;;15.78;100.00;100174.53;104600;1264;60064;-54
2023/10/01 01:15:51;;;;;;;20.80;12.60;;;;;;;15.72;100.00;100172.52;104561;1262;74702;-55
2023/10/01 01:18:20;;;;;;;15.20;10.90;;;;;;;15.64;100.00;100180.27;105132;1262;67608;-55
2023/10/01 01:20:49;;;;;;;14.70;12.40;;;;;;;15.55;100.00;100175.04;104891;1262;71471;-55
2023/10/01 01:23:21;;;;;;;17.30;12.10;;;;;;;15.46;100.00;100173.95;104603;1257;60604;-55
2023/10/01 01:25:56;;;;;;;20.70;12.90;;;;;;;15.34;100.00;100167.46;105180;1263;59292;-55
2023/10/01 01:28:35;;;;;;;19.10;12.50;;;;;;;15.24;100.00;100169.91;104652;1263;73337;-56
2023/10/01 01:31:04;;;;;;;18.60;12.30;;;;;;;15.16;100.00;100171.85;104969;1263;65632;-55
2023/10/01 01:33:32;;;;;;;16.40;11.80;;;;;;;15.05;100.00;100168.68;104943;1262;71609;-56
2023/10/01 01:36:03;;;;;;;16.50;13.40;;;;;;;14.96;100.00;100169.26;105463;1259;59738;-54
2023/10/01 01:38:32;;;;;;;16.90;13.20;;;;;;;14.87;100.00;100170.33;104825;1262;60307;-54
2023/10/01 01:41:00;;;;;;;19.30;12.00;;;;;;;14.80;100.00;100162.42;104854;1261;72696;-56
2023/10/01 01:43:31;;;;;;;21.00;12.30;;;;;;;14.74;100.00;100164.92;104836;1258;66222;-55
2023/10/01 01:46:03;;;;;;;17.00;12.30;;;;;;;14.67;100.00;100161.20;104780;1263;71430;-56
2023/10/01 01:48:31;;;;;;;16.40;11.70;;;;;;;14.61;100.00;100161.19;104953;1261;60514;-54
2023/10/01 01:51:00;;;;;;;21.40;12.70;;;;;;;14.56;100.00;100167.64;104828;1257;60492;-53
2023/10/01 01:53:35;;;;;;;16.40;13.10;;;;;;;14.51;100.00;100166.14;105251;1263;72672;-54
2023/10/01 01:56:09;;;;;;;19.10;12.90;;;;;;;14.45;100.00;100163.24;104706;1263;66894;-54
2023/10/01 01:58:39;;;;;;;18.40;13.10;;;;;;;14.38;100.00;100162.17;104670;1258;73183;-54
2023/10/01 02:01:08;;;;;;;19.50;12.20;;;;;;;14.32;100.00;100157.25;104706;1263;60425;-53
2023/10/01 02:03:37;;;;;;;15.40;11.90;;;;;;;14.28;100.00;100162.75;104953;1262;60511;-53
2023/10/01 02:06:06;;;;;;;21.10;13.60;;;;;;;14.19;100.00;100160.89;105224;1263;72627;-53
2023/10/01 02:09:12;;;;;;;18.50;13.00;;;;;;;14.07;100.00;100159.80;105849;1257;65709;-54
2023/10/01 02:11:32;;;;;;;20.80;13.40;;;;;;;13.95;100.00;100166.73;104483;1263;71293;-51
2023/10/01 02:14:03;;;;;;;17.40;11.60;;;;;;;13.87;100.00;100166.12;105190;1257;60654;-54
2023/10/01 02:16:35;;;;;;;15.60;11.30;;;;;;;13.79;100.00;100169.98;105062;1263;60522;-53
2023/10/01 02:19:21;;;;;;;18.30;11.40;;;;;;;13.71;100.00;100170.96;104870;1257;72646;-53
2023/10/01 02:21:52;;;;;;;15.90;10.60;;;;;;;13.66;100.00;100163.87;104788;1257;67376;-51
2023/10/01 02:24:37;;;;;;;16.20;10.80;;;;;;;13.64;100.00;100167.71;107167;1263;72707;-52
2023/10/01 02:27:05;;;;;;;14.60;12.20;;;;;;;13.65;100.00;100165.53;106265;1263;60481;-52
2023/10/01 02:29:45;;;;;;;20.20;13.30;;;;;;;13.67;100.00;100166.55;104597;1257;60460;-53
2023/10/01 02:32:14;;;;;;;18.50;13.10;;;;;;;13.70;100.00;100159.86;106257;1258;72714;-52
2023/10/01 02:34:43;;;;;;;20.60;14.00;;;;;;;13.71;100.00;100163.41;105275;1258;67381;-53
2023/10/01 02:37:10;;;;;;;20.30;13.80;;;;;;;13.72;100.00;100158.48;105414;1258;71482;-51
2023/10/01 02:39:38;;;;;;;21.40;14.10;;;;;;;13.71;100.00;100158.88;105361;1259;60846;-52
2023/10/01 02:44:40;;;;;;;26.00;13.20;;;;;;;13.66;100.00;100165.13;104858;1261;72658;-51
2023/10/01 02:47:16;;;;;;;20.70;15.00;;;;;;;13.63;100.00;100162.91;104732;1263;65752;-53
2023/10/01 02:49:52;;;;;;;19.60;15.20;;;;;;;13.61;100.00;100163.79;104606;1263;71434;-52
2023/10/01 02:52:26;;;;;;;26.10;16.10;;;;;;;13.56;100.00;100158.23;104980;1257;60675;-51
2023/10/01 02:54:54;;;;;;;23.90;13.60;;;;;;;13.54;100.00;100159.61;104650;1261;60630;-52
2023/10/01 02:57:24;;;;;;;25.10;15.00;;;;;;;13.53;100.00;100154.27;106923;1257;71696;-52
2023/10/01 03:02:53;;;;;;;21.40;14.80;;;;;;;13.52;100.00;100154.91;104537;1262;71471;-53
2023/10/01 03:05:36;;;;;;;23.70;16.40;;;;;;;13.50;100.00;100152.86;105891;1260;60363;-53
2023/10/01 03:08:40;;;;;;;19.90;15.20;;;;;;;13.45;100.00;100155.60;104518;1260;60571;-53
2023/10/01 03:10:52;;;;;;;18.10;14.30;;;;;;;13.40;100.00;100156.96;104445;1257;73897;-54
2023/10/01 03:13:30;;;;;;;22.30;14.60;;;;;;;13.38;100.00;100157.82;104573;1257;64730;-54
2023/10/01 03:18:46;;;;;;;19.70;13.20;;;;;;;13.36;100.00;100156.12;108680;1258;60475;-55
2023/10/01 03:21:19;;;;;;;23.80;12.80;;;;;;;13.35;100.00;100157.78;108684;1257;60127;-54
2023/10/01 03:23:53;;;;;;;23.30;14.70;;;;;;;13.36;100.00;100160.27;108744;1257;72568;-54
2023/10/01 03:26:21;;;;;;;24.30;14.90;;;;;;;13.36;100.00;100158.30;108657;1257;66572;-54
2023/10/01 03:31:37;;;;;;;20.40;15.90;;;;;;;13.37;100.00;100163.11;108710;1259;60646;-54
2023/10/01 03:34:05;;;;;;;23.50;16.50;;;;;;;13.36;100.00;100165.15;107797;1260;60166;-53
2023/10/01 03:36:42;;;;;;;22.60;15.20;;;;;;;13.34;100.00;100161.30;108764;1257;72680;-54
2023/10/01 03:39:25;;;;;;;24.30;15.30;;;;;;;13.30;100.00;100169.06;108799;1257;65662;-54
2023/10/01 03:41:54;;;;;;;22.40;16.10;;;;;;;13.23;100.00;100167.21;108749;1257;71477;-55
2023/10/01 03:44:59;;;;;;;20.50;16.00;;;;;;;13.18;100.00;100164.63;108422;1257;60572;-53
2023/10/01 03:47:09;;;;;;;19.90;14.70;;;;;;;13.12;100.00;100166.55;104535;1263;60588;-54
2023/10/01 03:49:40;;;;;;;17.40;13.40;;;;;;;13.08;100.00;100172.67;108843;1257;72736;-54
2023/10/01 03:52:09;;;;;;;15.30;13.30;;;;;;;13.02;100.00;100175.17;108733;1257;65779;-55
2023/10/01 03:57:23;;;;;;;19.00;12.60;;;;;;;12.94;100.00;100182.80;108818;1261;62153;-55
2023/10/01 03:59:52;;;;;;;18.30;12.80;;;;;;;12.90;100.00;100191.27;108767;1257;60101;-55
2023/10/01 04:05:21;;;;;;;17.00;13.80;;;;;;;12.89;100.00;100199.07;104568;1258;65718;-51
2023/10/01 04:07:49;;;;;;;14.40;11.30;;;;;;;12.87;100.00;100196.82;105423;1257;71486;-53
2023/10/01 04:12:54;;;;;;;19.50;14.20;;;;;;;12.83;100.00;100212.02;105445;1257;60578;-53
2023/10/01 04:15:30;;;;;;;17.90;12.80;;;;;;;12.79;100.00;100212.16;105294;1263;72678;-50
2023/10/01 04:23:30;;;;;;;13.60;9.70;;;;;;;12.77;100.00;100218.03;105034;1257;60642;-53
2023/10/01 04:26:06;;;;;;;13.90;9.50;;;;;;;12.77;100.00;100219.11;105776;1256;62060;-53
2023/10/01 04:28:41;;;;;;;15.00;10.90;;;;;;;12.78;100.00;100223.20;104612;1261;72643;-52
2023/10/01 04:31:09;;;;;;;13.80;10.20;;;;;;;12.82;100.00;100224.63;104736;1260;67155;-54
2023/10/01 04:33:42;;;;;;;13.70;10.60;;;;;;;12.87;100.00;100224.39;104701;1257;72793;-51
2023/10/01 04:36:11;;;;;;;11.10;9.90;;;;;;;12.92;100.00;100221.98;104672;1261;60561;-53
2023/10/01 04:38:41;;;;;;;13.40;10.70;;;;;;;12.98;100.00;100222.60;104973;1258;60591;-53
2023/10/01 04:41:13;;;;;;;12.90;10.00;;;;;;;13.03;100.00;100218.73;105486;1257;72721;-51
2023/10/01 04:43:51;;;;;;;16.70;10.50;;;;;;;13.08;100.00;100219.17;104712;1257;67160;-52
2023/10/01 04:46:29;;;;;;;12.30;9.40;;;;;;;13.14;100.00;100223.59;105383;1258;73150;-52
2023/10/01 04:48:57;;;;;;;13.50;10.40;;;;;;;13.19;100.00;100226.71;105142;1257;60979;-53
2023/10/01 04:51:44;;;;;;;13.60;9.00;;;;;;;13.26;100.00;100228.22;104715;1257;60475;-51
2023/10/01 04:54:21;;;;;;;11.50;9.40;;;;;;;13.34;100.00;100231.56;105316;1257;74463;-53
2023/10/01 04:56:49;;;;;;;12.40;8.70;;;;;;;13.41;100.00;100236.43;104954;1263;65796;-52
2023/10/01 04:59:18;;;;;;;12.00;9.40;;;;;;;13.47;100.00;100234.45;104872;1261;72445;-53
2023/10/01 05:01:56;;;;;;;13.00;9.90;;;;;;;13.54;100.00;100235.36;105154;1258;61010;-48
2023/10/01 05:04:27;;;;;;;13.20;9.40;;;;;;;13.60;100.00;100233.95;104808;1256;60924;-54
2023/10/01 05:07:04;;;;;;;11.40;9.10;;;;;;;13.65;100.00;100235.67;104714;1261;74275;-53
2023/10/01 05:09:36;;;;;;;12.60;8.10;;;;;;;13.71;100.00;100235.38;105448;1258;67078;-53
2023/10/01 05:12:03;;;;;;;12.30;8.10;;;;;;;13.76;100.00;100232.73;104717;1257;71481;-54
2023/10/01 05:14:32;;;;;;;12.30;9.00;;;;;;;13.84;100.00;100232.48;105286;1257;61644;-51
2023/10/01 05:17:07;;;;;;;10.00;9.00;;;;;;;13.95;100.00;100231.70;105804;1259;60973;-52
2023/10/01 05:19:38;;;;;;;9.70;8.80;;;;;;;14.06;100.00;100232.56;105297;1260;73823;-53
2023/10/01 05:22:08;;;;;;;10.70;9.10;;;;;;;14.16;100.00;100234.00;105017;1257;65650;-54
2023/10/01 05:24:36;;;;;;;9.70;8.70;;;;;;;14.26;100.00;100240.83;104979;1257;74275;-53
2023/10/01 05:27:09;;;;;;;9.20;8.40;;;;;;;14.34;100.00;100240.21;104961;1257;61265;-52
2023/10/01 05:29:42;;;;;;;10.00;7.70;;;;;;;14.42;100.00;100242.51;104753;1257;61060;-54
2023/10/01 05:32:13;;;;;;;8.50;7.60;;;;;;;14.48;100.00;100242.87;104907;1257;75352;-53
2023/10/01 05:34:47;;;;;;;8.70;7.10;;;;;;;14.54;100.00;100248.48;104928;1257;67035;-52
2023/10/01 05:37:24;;;;;;;11.10;8.00;;;;;;;14.61;100.00;100254.75;104717;1258;74732;-52
2023/10/01 05:39:57;;;;;;;11.10;8.40;;;;;;;14.70;100.00;100262.58;105084;1262;61063;-52
2023/10/01 05:42:40;;;;;;;8.50;7.50;;;;;;;14.79;100.00;100265.13;105098;1260;60364;-53
2023/10/01 05:45:18;;;;;;;10.40;7.40;;;;;;;14.86;100.00;100269.39;104877;1256;74304;-53
2023/10/01 05:47:51;;;;;;;9.50;8.70;;;;;;;14.94;100.00;100269.32;104934;1258;65784;-52
2023/10/01 05:50:22;;;;;;;10.50;8.40;;;;;;;15.02;100.00;100267.19;104894;1257;71868;-52
2023/10/01 05:52:50;;;;;;;8.50;7.80;;;;;;;15.10;100.00;100272.66;104837;1260;61711;-53
2023/10/01 05:55:19;;;;;;;9.50;7.30;;;;;;;15.16;100.00;100271.41;104774;1260;60472;-52
2023/10/01 05:57:50;;;;;;;7.80;7.00;;;;;;;15.20;100.00;100273.75;105117;1257;73903;-54
2023/10/01 06:00:18;;;;;;;8.30;7.50;;;;;;;15.22;100.00;100277.09;105286;1258;65835;-54
2023/10/01 06:02:47;;;;;;;9.70;7.90;;;;;;;15.24;100.00;100281.60;105041;1257;71459;-53
2023/10/01 06:05:42;;;;;;;7.80;7.00;;;;;;;15.26;100.00;100284.57;105256;1257;60687;-53
2023/10/01 06:08:17;;;;;;;9.20;8.30;;;;;;;15.28;100.00;100282.85;104756;1261;60895;-51
2023/10/01 06:10:48;;;;;;;8.50;7.70;;;;;;;15.30;100.00;100286.19;106228;1257;74584;-50
2023/10/01 06:13:17;;;;;;;7.50;7.00;;;;;;;15.31;100.00;100285.71;104767;1257;67796;-53
2023/10/01 06:15:45;;;;;;;9.80;8.70;;;;;;;15.33;100.00;100282.71;108816;1256;72700;-55
2023/10/01 06:18:12;;;;;;;13.30;8.00;;;;;;;15.37;100.00;100285.05;108648;1257;63418;-54
2023/10/01 06:20:42;;;;;;;10.50;9.50;;;;;;;15.40;100.00;100285.19;108822;1256;60077;-53
2023/10/01 06:23:10;;;;;;;10.80;8.60;;;;;;;15.44;100.00;100284.23;108751;1256;73918;-53
2023/10/01 06:25:37;;;;;;;9.50;8.60;;;;;;;15.48;100.00;100286.89;106093;1257;65649;-53
2023/10/01 06:28:09;;;;;;;10.70;9.70;;;;;;;15.52;100.00;100291.86;104507;1260;71274;-54
2023/10/01 06:30:40;;;;;;;9.90;8.90;;;;;;;15.57;100.00;100294.48;104768;1261;60645;-51
2023/10/01 06:33:09;;;;;;;12.00;9.50;;;;;;;15.62;100.00;100299.45;108737;1257;58858;-52
2023/10/01 06:36:04;;;;;;;11.00;9.20;;;;;;;15.66;100.00;100301.55;108738;1257;72678;-54
2023/10/01 06:38:26;;;;;;;11.60;10.20;;;;;;;15.72;100.00;100302.81;108724;1256;66896;-54
2023/10/01 06:40:53;;;;;;;10.60;9.40;;;;;;;15.78;100.00;100308.23;108769;1256;70559;-54
2023/10/01 06:43:20;;;;;;;10.90;8.80;;;;;;;15.84;100.00;100305.33;108752;1257;60514;-53
2023/10/01 06:45:49;;;;;;;9.10;8.10;;;;;;;15.89;100.00;100309.00;108750;1257;60112;-54
2023/10/01 06:48:24;;;;;;;9.10;8.30;;;;;;;15.95;100.00;100307.38;108890;1255;72719;-53
2023/10/01 06:50:53;;;;;;;9.00;8.20;;;;;;;16.02;100.00;100308.23;108661;1256;66862;-53
2023/10/01 06:53:43;;;;;;;9.90;8.90;;;;;;;16.09;100.00;100310.69;108689;1257;71503;-53
2023/10/01 06:56:09;;;;;;;13.70;10.90;;;;;;;16.15;100.00;100314.98;108927;1254;60525;-54
2023/10/01 06:58:36;;;;;;;15.50;12.40;;;;;;;16.18;100.00;100317.30;108978;1254;60092;-53
2023/10/01 07:01:05;;;;;;;12.60;11.20;;;;;;;16.20;100.00;100320.48;108971;1254;73951;-54
2023/10/01 07:03:32;;;;;;;12.40;11.20;;;;;;;16.20;100.00;100328.42;108975;1254;66445;-53
2023/10/01 07:06:02;;;;;;;13.30;11.50;;;;;;;16.20;100.00;100331.33;108977;1254;73111;-54
2023/10/01 07:08:43;;;;;;;12.00;10.60;;;;;;;16.18;100.00;100334.17;109036;1254;61707;-53
2023/10/01 07:11:17;;;;;;;15.30;12.10;;;;;;;16.16;100.00;100339.94;108933;1254;60461;-53
2023/10/01 07:13:47;;;;;;;13.30;10.80;;;;;;;16.14;100.00;100342.59;105086;1254;72765;-53
2023/10/01 07:16:18;;;;;;;17.00;11.90;;;;;;;16.13;100.00;100344.09;104817;1260;67360;-53
2023/10/01 07:18:46;;;;;;;12.60;11.20;;;;;;;16.10;100.00;100339.54;105054;1255;72767;-52
2023/10/01 07:21:16;;;;;;;17.60;12.00;;;;;;;16.08;100.00;100342.73;104875;1254;60574;-53
2023/10/01 07:23:43;;;;;;;13.60;10.90;;;;;;;16.09;100.00;100347.20;105433;1259;60674;-53
2023/10/01 07:26:12;;;;;;;13.20;11.10;;;;;;;16.09;100.00;100346.48;105019;1256;73781;-51
2023/10/01 07:28:41;;;;;;;15.70;10.10;;;;;;;16.07;100.00;100344.81;104920;1254;65283;-53
2023/10/01 07:31:09;;;;;;;13.00;9.80;;;;;;;16.07;100.00;100349.03;105079;1254;71432;-52
2023/10/01 07:33:37;;;;;;;11.80;9.70;;;;;;;16.08;100.00;100349.80;105482;1253;61691;-53
2023/10/01 07:36:10;;;;;;;10.00;8.60;;;;;;;16.10;100.00;100350.95;104937;1254;60553;-53
2023/10/01 07:38:48;;;;;;;14.20;9.40;;;;;;;16.12;100.00;100353.04;105088;1254;73841;-54
2023/10/01 07:41:16;;;;;;;10.50;8.50;;;;;;;16.14;100.00;100355.24;104860;1255;66929;-52
2023/10/01 07:43:44;;;;;;;10.30;8.70;;;;;;;16.15;100.00;100357.70;104826;1257;71411;-51
2023/10/01 07:46:14;;;;;;;10.30;8.60;;;;;;;16.17;100.00;100363.05;104815;1254;62233;-53
2023/10/01 07:48:49;;;;;;;10.40;9.30;;;;;;;16.15;100.00;100360.98;104960;1254;61363;-51
2023/10/01 07:51:35;;;;;;;8.70;6.50;;;;;;;16.14;100.00;100364.66;105178;1253;73618;-52
2023/10/01 07:54:09;;;;;;;9.10;8.00;;;;;;;16.12;100.00;100362.77;105012;1256;66121;-50
2023/10/01 07:56:48;;;;;;;7.50;6.80;;;;;;;16.10;100.00;100363.46;105344;1259;72768;-52
2023/10/01 07:59:34;;;;;;;8.10;5.90;;;;;;;16.07;100.00;100363.30;104960;1253;60648;-53
2023/10/01 08:02:19;;;;;;;7.40;4.90;;;;;;;16.04;100.00;100365.84;105093;1256;60575;-53
2023/10/01 08:04:57;;;;;;;7.00;4.70;;;;;;;16.00;100.00;100367.00;105139;1253;73925;-53
2023/10/01 08:07:39;;;;;;;5.50;3.80;;;;;;;15.95;100.00;100368.23;105148;1254;65747;-54
2023/10/01 08:10:17;;;;;;;9.30;4.80;;;;;;;15.90;100.00;100371.38;104982;1259;71361;-55
2023/10/01 08:13:04;;;;;;;5.30;2.80;;;;;;;15.86;100.00;100374.71;104901;1256;60612;-52
2023/10/01 08:15:38;;;;;;;5.30;2.20;;;;;;;15.82;100.00;100375.11;104925;1256;60581;-54
2023/10/01 08:20:58;;;;;;;2.70;2.40;;;;;;;15.72;100.00;100379.52;104901;1259;67035;-52
2023/10/01 08:23:33;;;;;;;4.50;2.40;;;;;;;15.68;100.00;100376.14;104883;1259;72750;-53
2023/10/01 08:26:41;;;;;;;3.60;2.30;;;;;;;15.66;100.00;100381.38;104971;1257;61674;-51
2023/10/01 08:29:07;;;;;;;3.90;1.60;;;;;;;15.62;100.00;100382.46;104822;1254;60805;-53
2023/10/01 08:34:24;;;;;;;2.10;1.70;;;;;;;15.59;100.00;100390.09;104943;1259;65745;-52
2023/10/01 08:37:06;;;;;;;4.80;1.60;;;;;;;15.55;100.00;100392.33;104998;1254;71207;-53
2023/10/01 08:39:34;;;;;;;3.70;1.70;;;;;;;15.50;100.00;100396.73;105191;1254;61722;-53
2023/10/01 08:42:08;;;;;;;1.90;1.40;;;;;;;15.47;100.00;100399.09;104857;1256;60427;-53
2023/10/01 08:44:49;;;;;;;;;;;;;;;15.44;100.00;100398.91;104860;1254;72317;-51
2023/10/01 08:47:36;;;;;;;3.60;1.30;;;;;;;15.42;100.00;100398.43;105016;1254;66828;-52
2023/10/01 08:53:01;;;;;;;2.10;1.00;;;;;;;15.36;100.00;100406.25;104823;1254;61791;-55
2023/10/01 08:55:35;;;;;;;1.10;0.80;;;;;;;15.31;100.00;100409.96;105183;1254;60536;-53
2023/10/01 09:00:53;;;;;;;3.00;1.00;;;;;;;15.21;100.00;100411.47;105058;1254;65737;-53
2023/10/01 09:03:34;;;;;;;0.90;0.70;;;;;;;15.16;100.00;100410.23;105890;1259;73270;-54
2023/10/01 09:06:03;;;;;;;1.40;0.70;;;;;;;15.16;100.00;100414.61;105271;1254;61122;-54
2023/10/01 09:08:45;;;;;;;2.20;0.80;;;;;;;15.15;100.00;100419.86;105513;1257;60457;-52
2023/10/01 09:11:13;;;;;;;1.00;0.80;;;;;;;15.13;100.00;100419.46;105292;1254;73873;-53
2023/10/01 09:14:14;;;;;;;3.10;0.70;;;;;;;15.12;100.00;100425.70;105419;1256;66984;-53
2023/10/01 09:16:43;;;;;;;1.40;0.70;;;;;;;15.11;100.00;100429.15;104898;1257;72838;-53
2023/10/01 09:19:30;;;;;;;2.00;0.70;;;;;;;15.12;100.00;100432.34;104890;1255;61262;-53
2023/10/01 09:22:08;;;;;;;3.80;0.70;;;;;;;15.15;100.00;100434.33;109025;1254;60081;-54
2023/10/01 09:24:38;;;;;;;1.40;0.60;;;;;;;15.18;100.00;100433.86;108923;1254;73957;-52
2023/10/01 09:27:18;;;;;;;2.20;0.90;;;;;;;15.20;100.00;100438.64;109070;1254;69279;-52
2023/10/01 09:29:48;;;;;;;2.80;0.90;;;;;;;15.20;100.00;100439.36;109094;1253;71555;-52
2023/10/01 09:32:19;;;;;;;2.50;1.00;;;;;;;15.20;100.00;100436.44;109042;1253;58757;-53
2023/10/01 09:34:56;;;;;;;1.90;0.70;;;;;;;15.19;100.00;100439.06;109013;1254;60128;-53
2023/10/01 09:37:47;;;;;;;1.50;0.70;;;;;;;15.16;100.00;100441.55;108948;1253;73103;-54
2023/10/01 09:42:58;;;;;;;2.20;0.60;;;;;;;15.06;100.00;100445.15;108915;1254;72294;-53
2023/10/01 09:45:27;;;;;;;3.10;1.10;;;;;;;15.04;100.00;100443.48;109011;1255;61742;-53
2023/10/01 09:48:07;;;;;;;4.90;0.70;;;;;;;15.05;100.00;100442.19;108804;1254;60062;-54
2023/10/01 09:53:02;;;;;;;5.00;0.70;;;;;;;15.11;100.00;100466.78;101948;1291;601055;-54
2023/10/01 09:55:30;;;;;;;1.90;0.70;;;;;;;15.18;100.00;100465.13;108103;1265;58857;-54
2023/10/01 09:58:08;;;;;;;2.40;0.70;;;;;;;15.23;100.00;100458.30;104174;1271;59776;-54
2023/10/01 10:00:42;;;;;;;2.30;0.50;;;;;;;15.28;100.00;100459.50;104382;1266;71125;-53
2023/10/01 10:03:11;;;;;;;1.00;0.50;;;;;;;15.31;100.00;100459.67;104786;1266;67276;-54
2023/10/01 10:05:42;;;;;;;6.40;0.60;;;;;;;15.34;100.00;100458.77;104267;1269;202631;-54
2023/10/01 10:08:15;;;;;;;3.00;0.70;;;;;;;15.40;100.00;100457.91;103884;1263;60424;-54
2023/10/01 10:10:52;;;;;;;1.70;0.60;;;;;;;15.46;100.00;100456.66;104262;1268;59766;-53
2023/10/01 10:13:57;;;;;;;2.30;0.60;;;;;;;15.51;100.00;100458.70;104245;1263;72681;-53
2023/10/01 10:16:32;;;;;;;1.50;0.60;;;;;;;15.57;100.00;100457.67;105174;1262;66779;-54
2023/10/01 10:19:13;;;;;;;1.70;0.50;;;;;;;15.64;100.00;100455.99;104066;1266;71477;-53
2023/10/01 10:24:31;;;;;;;1.80;0.60;;;;;;;15.76;100.00;100448.02;104197;1264;61209;-54
2023/10/01 10:27:07;;;;;;;2.90;0.60;;;;;;;15.81;100.00;100450.11;103940;1263;72085;-54
2023/10/01 10:29:49;;;;;;;2.60;0.60;;;;;;;15.88;100.00;100443.92;103821;1263;67725;-53
2023/10/01 10:32:16;;;;;;;1.80;0.50;;;;;;;15.94;100.00;100445.88;104557;1259;71413;-54
2023/10/01 10:35:06;;;;;;;2.20;0.50;;;;;;;16.01;100.00;100446.77;104680;1256;60456;-54
2023/10/01 10:37:37;;;;;;;2.50;0.70;;;;;;;16.06;100.00;100445.21;104401;1257;60099;-54
2023/10/01 10:42:40;;;;;;;4.40;1.10;;;;;;;16.13;100.00;100445.29;104645;1256;69718;-54
2023/10/01 10:45:20;;;;;;;1.40;0.60;;;;;;;16.16;100.00;100445.27;104626;1256;72711;-54
2023/10/01 10:48:04;;;;;;;3.30;0.60;;;;;;;16.18;100.00;100445.86;108708;1256;60064;-54
2023/10/01 10:50:56;;;;;;;3.60;0.80;;;;;;;16.19;100.00;100434.26;108024;1256;59232;-54
2023/10/01 10:53:43;;;;;;;3.60;0.60;;;;;;;16.22;100.00;100429.91;104749;1257;71840;-53
2023/10/01 10:56:13;;;;;;;3.70;0.60;;;;;;;16.27;100.00;100425.96;104478;1256;66934;-54
2023/10/01 10:59:03;;;;;;;2.70;1.00;;;;;;;16.35;100.00;100432.03;108730;1256;72364;-54
2023/10/01 11:01:43;;;;;;;3.20;0.50;;;;;;;16.44;100.00;100425.29;106790;1259;59970;-52
2023/10/01 11:04:16;;;;;;;2.50;0.90;;;;;;;16.52;100.00;100426.60;104818;1256;60093;-53
2023/10/01 11:07:01;;;;;;;2.00;0.60;;;;;;;16.59;100.00;100423.42;104380;1257;72083;-54
2023/10/01 11:09:31;;;;;;;4.20;0.70;;;;;;;16.67;100.00;100423.13;105455;1261;66359;-53
2023/10/01 11:11:58;;;;;;;1.80;0.60;;;;;;;16.73;100.00;100424.99;104499;1257;72777;-53
2023/10/01 11:14:25;;;;;;;3.60;1.30;;;;;;;16.75;100.00;100420.28;104501;1262;60125;-52
2023/10/01 11:16:53;;;;;;;1.40;0.60;;;;;;;16.79;100.00;100416.02;104620;1256;60461;-54
2023/10/01 11:19:25;;;;;;;2.80;0.50;;;;;;;16.85;100.00;100416.23;104733;1262;73110;-52
2023/10/01 11:21:58;;;;;;;3.70;0.70;;;;;;;16.90;100.00;100414.10;104827;1257;65938;-54
2023/10/01 11:24:34;;;;;;;2.50;0.70;;;;;;;16.91;100.00;100410.94;104898;1256;72713;-53
2023/10/01 11:27:43;;;;;;;5.50;0.70;;;;;;;16.92;100.00;100413.40;104869;1257;59742;-52
2023/10/01 11:30:12;;;;;;;1.00;0.50;;;;;;;16.90;100.00;100408.63;105155;1261;60078;-54
2023/10/01 11:32:58;;;;;;;2.50;0.60;;;;;;;16.90;100.00;100406.98;104601;1263;71958;-53
2023/10/01 11:35:33;;;;;;;2.00;0.60;;;;;;;16.92;100.00;100408.70;105754;1262;66929;-53
2023/10/01 11:38:21;;;;;;;;;;;;;;;16.93;100.00;100405.88;105208;1262;72692;-55
2023/10/01 11:41:09;;;;;;;4.80;0.60;;;;;;;16.93;100.00;100401.52;105047;1262;62559;-51
2023/10/01 11:43:42;;;;;;;3.40;0.70;;;;;;;16.95;100.00;100396.48;105379;1262;58820;-53
2023/10/01 11:46:19;;;;;;;4.20;0.70;;;;;;;16.99;100.00;100390.61;104638;1261;73146;-53
2023/10/01 11:49:02;;;;;;;2.10;0.60;;;;;;;17.06;100.00;100387.81;104879;1262;67011;-53
2023/10/01 11:51:38;;;;;;;1.60;0.60;;;;;;;17.12;100.00;100386.16;105049;1262;72813;-51
2023/10/01 11:54:09;;;;;;;3.10;0.50;;;;;;;17.16;100.00;100382.84;104940;1257;59718;-52
2023/10/01 11:56:38;;;;;;;3.10;0.50;;;;;;;17.18;100.00;100377.93;105676;1258;59626;-52
2023/10/01 11:59:08;;;;;;;2.50;0.50;;;;;;;17.22;100.00;100375.70;105869;1259;71854;-53
2023/10/01 12:01:39;;;;;;;4.60;0.50;;;;;;;17.27;100.00;100372.31;105062;1253;65905;-53
2023/10/01 12:04:07;;;;;;;3.30;0.50;;;;;;;17.34;100.00;100373.14;105581;1256;73161;-54
2023/10/01 12:06:35;;;;;;;1.50;0.40;;;;;;;17.38;100.00;100371.17;105356;1253;59724;-54
2023/10/01 12:09:02;;;;;;;2.80;0.60;;;;;;;17.40;100.00;100374.14;105207;1260;59751;-54
2023/10/01 12:11:31;;;;;;;3.10;0.60;;;;;;;17.43;100.00;100381.45;105074;1253;72988;-52
2023/10/01 12:14:17;;;;;;;1.20;0.40;;;;;;;17.45;100.00;100374.53;105092;1253;65824;-53
2023/10/01 12:16:45;;;;;;;3.00;0.50;;;;;;;17.49;100.00;100369.00;105245;1255;73150;-52